Time;durP1;ratioP1;P1;durP2;ratioP2;P2;SDS_P1;SDS_P2;PMS_P1;PMS_P2;Temp;Humidity;BMP_temperature;BMP_pressure;BME280_temperature;BME280_humidity;BME280_pressure;Samples;Min_cycle;Max_cycle;Signal;HPM_P1;HPM_P2
2022/11/13 00:01:34;;;;;;;;;;;;;;;7.92;81.58;102654.69;5048355;28;20063;-57
2022/11/13 00:03:59;;;;;;;;;;;;;;;7.93;81.88;102644.00;5048038;28;19928;-58
2022/11/13 00:06:24;;;;;;;;;;;;;;;7.93;82.03;102641.38;5049098;28;20012;-54
2022/11/13 00:08:52;;;;;;;;;;;;;;;7.94;82.18;102629.81;5048565;28;19921;-55
2022/11/13 00:11:18;;;;;;;;;;;;;;;7.94;82.29;102632.47;5041749;28;19913;-55
2022/11/13 00:13:44;;;;;;;;;;;;;;;7.93;82.08;102641.38;5044885;28;19913;-58
2022/11/13 00:16:11;;;;;;;;;;;;;;;7.89;81.92;102633.75;5056528;28;19923;-52
2022/11/13 00:18:37;;;;;;;;;;;;;;;7.84;82.25;102633.25;5053804;28;19995;-55
2022/11/13 00:21:10;;;;;;;;;;;;;;;7.81;82.03;102621.09;5053555;28;20008;-55
2022/11/13 00:23:36;;;;;;;;;;;;;;;7.77;82.47;102631.00;5050148;28;19916;-56
2022/11/13 00:26:05;;;;;;;;;;;;;;;7.75;81.96;102634.72;5049534;28;19928;-53
2022/11/13 00:28:30;;;;;;;;;;;;;;;7.72;82.25;102627.84;5048968;28;19913;-55
2022/11/13 00:30:59;;;;;;;;;;;;;;;7.70;82.27;102628.91;5048228;28;20019;-54
2022/11/13 00:33:25;;;;;;;;;;;;;;;7.66;81.94;102627.44;5044120;28;19916;-56
2022/11/13 00:35:50;;;;;;;;;;;;;;;7.62;81.82;102620.69;5048140;28;20143;-56
2022/11/13 00:38:15;;;;;;;;;;;;;;;7.59;81.84;102612.97;5050626;28;19956;-56
2022/11/13 00:40:40;;;;;;;;;;;;;;;7.55;81.77;102609.69;5041608;28;19917;-55
2022/11/13 00:43:06;;;;;;;;;;;;;;;7.46;81.56;102605.03;5052155;28;19982;-58
2022/11/13 00:45:31;;;;;;;;;;;;;;;7.48;81.39;102603.13;5045237;28;19921;-54
2022/11/13 00:47:56;;;;;;;;;;;;;;;7.43;81.64;102605.25;5047997;28;20265;-58
2022/11/13 00:50:21;;;;;;;;;;;;;;;7.39;81.60;102604.63;5055398;28;19919;-54
2022/11/13 00:52:46;;;;;;;;;;;;;;;7.37;81.83;102590.66;5044656;28;19917;-56
2022/11/13 00:55:11;;;;;;;;;;;;;;;7.37;81.77;102598.59;5047719;28;19920;-56
2022/11/13 00:57:37;;;;;;;;;;;;;;;7.35;81.65;102605.78;5049990;28;20028;-57
2022/11/13 01:00:02;;;;;;;;;;;;;;;7.34;81.75;102601.47;5042910;28;19917;-56
2022/11/13 01:02:28;;;;;;;;;;;;;;;7.32;81.79;102607.81;5045558;28;19971;-56
2022/11/13 01:04:53;;;;;;;;;;;;;;;7.29;81.82;102594.81;5047846;28;20348;-56
2022/11/13 01:07:18;;;;;;;;;;;;;;;7.26;81.76;102589.75;5047372;28;19971;-57
2022/11/13 01:09:43;;;;;;;;;;;;;;;7.24;81.67;102594.28;5046847;28;20368;-57
2022/11/13 01:12:08;;;;;;;;;;;;;;;7.23;82.19;102587.28;5044558;28;20450;-55
2022/11/13 01:14:34;;;;;;;;;;;;;;;7.21;81.96;102586.53;5049039;28;19924;-55
2022/11/13 01:16:59;;;;;;;;;;;;;;;7.21;82.27;102590.03;5048277;28;20372;-53
2022/11/13 01:19:24;;;;;;;;;;;;;;;7.20;82.35;102588.34;5051428;28;19969;-55
2022/11/13 01:21:49;;;;;;;;;;;;;;;7.18;82.66;102589.41;5049443;28;19924;-58
2022/11/13 01:24:14;;;;;;;;;;;;;;;7.17;82.69;102590.34;5040230;28;20478;-56
2022/11/13 01:26:39;;;;;;;;;;;;;;;7.13;82.63;102589.72;5061131;28;20054;-54
2022/11/13 01:29:06;;;;;;;;;;;;;;;7.08;82.57;102583.91;5048375;28;19973;-55
2022/11/13 01:31:31;;;;;;;;;;;;;;;7.01;82.74;102583.50;5047901;28;19913;-56
2022/11/13 01:33:57;;;;;;;;;;;;;;;7.00;82.74;102586.25;5044648;28;20307;-57
2022/11/13 01:36:23;;;;;;;;;;;;;;;6.99;82.73;102585.38;5049127;28;20414;-54
2022/11/13 01:38:49;;;;;;;;;;;;;;;7.02;82.61;102571.13;5045917;28;20018;-54
2022/11/13 01:41:15;;;;;;;;;;;;;;;7.04;82.85;102572.72;5047209;28;19983;-56
2022/11/13 01:43:41;;;;;;;;;;;;;;;7.07;82.81;102566.38;5045708;28;19924;-54
2022/11/13 01:46:06;;;;;;;;;;;;;;;7.08;82.65;102568.91;5046339;28;20315;-57
2022/11/13 01:48:35;;;;;;;;;;;;;;;7.08;82.86;102558.34;5046917;28;20380;-55
2022/11/13 01:51:01;;;;;;;;;;;;;;;7.10;82.70;102566.16;5048871;28;19974;-55
2022/11/13 01:53:27;;;;;;;;;;;;;;;7.10;82.65;102566.16;5044579;28;19921;-55
2022/11/13 01:55:52;;;;;;;;;;;;;;;7.08;82.63;102568.06;5045793;28;20427;-55
2022/11/13 01:58:17;;;;;;;;;;;;;;;7.06;82.77;102559.41;5043282;28;19927;-56
2022/11/13 02:00:43;;;;;;;;;;;;;;;7.02;82.48;102561.41;5044697;28;19917;-53
2022/11/13 02:03:08;;;;;;;;;;;;;;;6.98;82.33;102557.28;5050901;28;20364;-54
2022/11/13 02:05:33;;;;;;;;;;;;;;;6.97;82.24;102554.75;5045853;28;19917;-55
2022/11/13 02:07:59;;;;;;;;;;;;;;;6.95;82.48;102540.81;5046547;28;19975;-56
2022/11/13 02:10:24;;;;;;;;;;;;;;;6.95;82.30;102546.94;5048931;28;19923;-56
2022/11/13 02:12:50;;;;;;;;;;;;;;;6.94;82.52;102541.72;5057930;28;19920;-56
2022/11/13 02:15:17;;;;;;;;;;;;;;;6.94;82.25;102539.09;5052437;28;20008;-56
2022/11/13 02:17:56;;;;;;;;;;;;;;;6.93;82.40;102532.13;5058655;28;19924;-57
2022/11/13 02:20:41;;;;;;;;;;;;;;;6.93;82.50;102535.59;5049013;28;19923;-54
2022/11/13 02:23:16;;;;;;;;;;;;;;;6.98;82.62;102530.03;5052848;28;20297;-56
2022/11/13 02:25:42;;;;;;;;;;;;;;;7.01;82.49;102528.03;5052797;28;20043;-55
2022/11/13 02:28:07;;;;;;;;;;;;;;;7.02;82.27;102524.44;5055200;28;19924;-58
2022/11/13 02:30:33;;;;;;;;;;;;;;;7.08;82.52;102529.28;5049148;28;19917;-53
2022/11/13 02:32:59;;;;;;;;;;;;;;;7.15;82.62;102521.75;5053153;28;19999;-53
2022/11/13 02:35:32;;;;;;;;;;;;;;;7.21;82.96;102521.34;5054967;28;20016;-54
2022/11/13 02:37:58;;;;;;;;;;;;;;;7.28;82.86;102521.78;5052454;28;19963;-56
2022/11/13 02:40:23;;;;;;;;;;;;;;;7.33;82.83;102522.28;5049550;28;19920;-53
2022/11/13 02:42:49;;;;;;;;;;;;;;;7.37;83.00;102518.47;5054958;28;20007;-54
2022/11/13 02:45:14;;;;;;;;;;;;;;;7.41;83.09;102512.84;5056277;28;19917;-58
2022/11/13 02:47:39;;;;;;;;;;;;;;;7.46;83.05;102505.44;5054174;28;20002;-55
2022/11/13 02:50:05;;;;;;;;;;;;;;;7.50;82.65;102508.69;5045782;28;19928;-58
2022/11/13 02:52:31;;;;;;;;;;;;;;;7.53;82.45;102505.03;5053896;28;19923;-55
2022/11/13 02:54:56;;;;;;;;;;;;;;;7.56;82.68;102499.50;5053149;28;19916;-55
2022/11/13 02:57:21;;;;;;;;;;;;;;;7.57;82.45;102496.75;5049641;28;19923;-54
2022/11/13 02:59:46;;;;;;;;;;;;;;;7.60;82.39;102490.41;5045678;28;19925;-58
2022/11/13 03:02:12;;;;;;;;;;;;;;;7.62;81.99;102497.25;5050033;28;19917;-55
2022/11/13 03:04:37;;;;;;;;;;;;;;;7.63;82.28;102495.47;5056261;28;20004;-55
2022/11/13 03:07:02;;;;;;;;;;;;;;;7.63;81.74;102487.53;5050054;28;19921;-53
2022/11/13 03:09:27;;;;;;;;;;;;;;;7.62;82.26;102494.63;5051602;28;20457;-55
2022/11/13 03:11:52;;;;;;;;;;;;;;;7.63;81.77;102483.09;5053479;28;19963;-55
2022/11/13 03:14:17;;;;;;;;;;;;;;;7.66;81.88;102485.50;5054543;28;19948;-54
2022/11/13 03:16:43;;;;;;;;;;;;;;;7.67;81.52;102489.84;5051201;28;19970;-56
2022/11/13 03:19:08;;;;;;;;;;;;;;;7.69;81.47;102487.09;5058539;28;19952;-56
2022/11/13 03:21:33;;;;;;;;;;;;;;;7.70;81.22;102478.19;5045562;28;19927;-54
2022/11/13 03:23:58;;;;;;;;;;;;;;;7.71;81.28;102464.84;5050855;28;19924;-55
2022/11/13 03:26:23;;;;;;;;;;;;;;;7.72;81.01;102469.19;5049181;28;19943;-55
2022/11/13 03:28:49;;;;;;;;;;;;;;;7.73;81.24;102470.88;5045503;28;19917;-55
2022/11/13 03:31:14;;;;;;;;;;;;;;;7.73;81.22;102465.59;5048262;28;19963;-55
2022/11/13 03:33:40;;;;;;;;;;;;;;;7.72;80.97;102455.13;5054944;28;19978;-54
2022/11/13 03:36:05;;;;;;;;;;;;;;;7.72;80.75;102455.97;5051133;28;20284;-56
2022/11/13 03:38:31;;;;;;;;;;;;;;;7.71;80.92;102462.22;5053248;28;19916;-55
2022/11/13 03:40:56;;;;;;;;;;;;;;;7.71;80.79;102456.91;5051118;28;20027;-55
2022/11/13 03:43:21;;;;;;;;;;;;;;;7.70;80.89;102460.53;5048109;28;19917;-55
2022/11/13 03:45:47;;;;;;;;;;;;;;;7.69;80.83;102458.00;5049321;28;19998;-55
2022/11/13 03:48:13;;;;;;;;;;;;;;;7.68;80.79;102461.59;5047497;28;19924;-53
2022/11/13 03:50:38;;;;;;;;;;;;;;;7.68;80.84;102458.94;5050972;28;19992;-53
2022/11/13 03:53:03;;;;;;;;;;;;;;;7.67;80.61;102458.09;5046890;28;19917;-54
2022/11/13 03:55:29;;;;;;;;;;;;;;;7.66;80.84;102453.78;5048104;28;19971;-52
2022/11/13 03:57:54;;;;;;;;;;;;;;;7.64;80.67;102454.84;5047229;28;19964;-55
2022/11/13 04:00:19;;;;;;;;;;;;;;;7.64;80.44;102449.56;5043402;28;19951;-54
2022/11/13 04:02:45;;;;;;;;;;;;;;;7.64;80.27;102450.41;5047553;28;19916;-56
2022/11/13 04:05:10;;;;;;;;;;;;;;;7.63;80.45;102446.06;5050088;28;20015;-56
2022/11/13 04:07:36;;;;;;;;;;;;;;;7.64;80.53;102437.19;5050616;28;19924;-56
2022/11/13 04:10:01;;;;;;;;;;;;;;;7.64;80.38;102438.97;5052499;28;20525;-54
2022/11/13 04:12:26;;;;;;;;;;;;;;;7.64;80.58;102431.06;5049416;28;19924;-54
2022/11/13 04:14:51;;;;;;;;;;;;;;;7.64;80.30;102439.81;5044442;28;19924;-57
2022/11/13 04:17:16;;;;;;;;;;;;;;;7.65;80.44;102440.66;5046469;28;20011;-54
2022/11/13 04:19:41;;;;;;;;;;;;;;;7.67;80.19;102436.09;5046057;28;19917;-55
2022/11/13 04:22:07;;;;;;;;;;;;;;;7.67;80.24;102433.47;5049435;28;20329;-52
2022/11/13 04:24:32;;;;;;;;;;;;;;;7.69;80.05;102436.84;5051633;28;19970;-54
2022/11/13 04:26:57;;;;;;;;;;;;;;;7.70;80.37;102431.44;5050208;28;19920;-54
2022/11/13 04:29:22;;;;;;;;;;;;;;;7.70;80.21;102428.78;5047852;28;19924;-56
2022/11/13 04:31:47;;;;;;;;;;;;;;;7.72;80.44;102424.22;5047079;28;20003;-55
2022/11/13 04:34:13;;;;;;;;;;;;;;;7.73;80.25;102425.91;5048612;28;20360;-55
2022/11/13 04:36:38;;;;;;;;;;;;;;;7.74;80.04;102417.03;5048694;28;19970;-55
2022/11/13 04:39:03;;;;;;;;;;;;;;;7.75;80.18;102423.16;5047363;28;20438;-55
2022/11/13 04:44:12;;;;;;;;;;;;;;;7.75;80.12;102409.94;5048885;28;19923;-53
2022/11/13 04:46:37;;;;;;;;;;;;;;;7.75;79.93;102412.59;5055895;28;19916;-56
2022/11/13 04:49:03;;;;;;;;;;;;;;;7.75;79.98;102413.44;5047978;28;19960;-53
2022/11/13 04:51:28;;;;;;;;;;;;;;;7.73;79.76;102415.34;5042908;28;19924;-53
2022/11/13 04:53:53;;;;;;;;;;;;;;;7.72;79.65;102418.94;5040813;28;20427;-56
2022/11/13 04:56:18;;;;;;;;;;;;;;;7.71;79.77;102414.63;5049125;28;19916;-55
2022/11/13 04:58:43;;;;;;;;;;;;;;;7.69;79.99;102413.03;5049103;28;20358;-55
2022/11/13 05:01:08;;;;;;;;;;;;;;;7.68;79.72;102419.28;5051251;28;19921;-53
2022/11/13 05:03:34;;;;;;;;;;;;;;;7.64;79.87;102416.03;5048272;28;19923;-53
2022/11/13 05:06:06;;;;;;;;;;;;;;;7.63;79.48;102411.69;5050023;28;19963;-55
2022/11/13 05:08:32;;;;;;;;;;;;;;;7.63;79.82;102411.69;5047350;28;19927;-56
2022/11/13 05:10:57;;;;;;;;;;;;;;;7.62;79.97;102412.66;5047219;28;20008;-56
2022/11/13 05:13:22;;;;;;;;;;;;;;;7.61;79.55;102413.63;5045846;28;19924;-55
2022/11/13 05:15:47;;;;;;;;;;;;;;;7.59;79.56;102409.41;5044774;28;19917;-54
2022/11/13 05:18:13;;;;;;;;;;;;;;;7.58;79.51;102419.13;5049239;28;19917;-52
2022/11/13 05:20:38;;;;;;;;;;;;;;;7.57;79.67;102412.16;5046853;28;19995;-53
2022/11/13 05:23:03;;;;;;;;;;;;;;;7.54;79.51;102407.09;5046143;28;19916;-53
2022/11/13 05:25:28;;;;;;;;;;;;;;;7.55;79.69;102406.13;5046184;28;19932;-54
2022/11/13 05:27:56;;;;;;;;;;;;;;;7.54;79.54;102412.38;5048643;28;19920;-56
2022/11/13 05:30:21;;;;;;;;;;;;;;;7.54;79.83;102400.97;5047277;28;19924;-57
2022/11/13 05:32:46;;;;;;;;;;;;;;;7.53;79.55;102402.75;5044243;28;19921;-56
2022/11/13 05:35:11;;;;;;;;;;;;;;;7.54;79.51;102404.47;5048772;28;20277;-53
2022/11/13 05:37:36;;;;;;;;;;;;;;;7.53;79.68;102399.28;5046867;28;20008;-55
2022/11/13 05:40:02;;;;;;;;;;;;;;;7.53;79.69;102394.00;5045248;28;19932;-53
2022/11/13 05:42:27;;;;;;;;;;;;;;;7.52;79.54;102401.09;5050417;28;19917;-56
2022/11/13 05:44:52;;;;;;;;;;;;;;;7.49;79.39;102397.78;5047970;28;19960;-52
2022/11/13 05:47:17;;;;;;;;;;;;;;;7.45;79.37;102391.88;5047826;28;19921;-54
2022/11/13 05:49:42;;;;;;;;;;;;;;;7.43;79.29;102401.72;5047870;28;19924;-53
2022/11/13 05:52:07;;;;;;;;;;;;;;;7.38;79.45;102391.50;5048291;28;20442;-55
2022/11/13 05:54:33;;;;;;;;;;;;;;;7.36;79.46;102396.06;5042057;28;19959;-56
2022/11/13 05:56:58;;;;;;;;;;;;;;;7.33;79.45;102398.94;5048072;28;19916;-54
2022/11/13 05:59:23;;;;;;;;;;;;;;;7.31;79.40;102400.00;5043805;28;19959;-55
2022/11/13 06:01:48;;;;;;;;;;;;;;;7.24;79.09;102393.47;5049036;28;19916;-54
2022/11/13 06:04:13;;;;;;;;;;;;;;;7.19;79.11;102391.13;5048724;28;19963;-55
2022/11/13 06:06:38;;;;;;;;;;;;;;;7.14;78.87;102398.56;5045364;28;19948;-52
2022/11/13 06:09:05;;;;;;;;;;;;;;;7.11;78.96;102394.34;5051420;28;19959;-56
2022/11/13 06:11:30;;;;;;;;;;;;;;;7.07;79.23;102384.94;5046453;28;19919;-55
2022/11/13 06:13:56;;;;;;;;;;;;;;;7.04;79.00;102389.59;5045624;28;20295;-56
2022/11/13 06:16:23;;;;;;;;;;;;;;;6.98;79.47;102382.13;5052083;28;19924;-55
2022/11/13 06:18:48;;;;;;;;;;;;;;;6.92;79.27;102375.47;5042004;28;19944;-57
2022/11/13 06:21:15;;;;;;;;;;;;;;;6.88;79.22;102376.63;5046908;28;19967;-54
2022/11/13 06:23:40;;;;;;;;;;;;;;;6.83;79.36;102378.75;5045816;28;19970;-57
2022/11/13 06:26:07;;;;;;;;;;;;;;;6.79;79.30;102377.28;5047560;28;19917;-55
2022/11/13 06:28:33;;;;;;;;;;;;;;;6.76;79.39;102374.88;5046869;28;19920;-55
2022/11/13 06:31:05;;;;;;;;;;;;;;;6.74;79.29;102374.13;5048131;28;19987;-55
2022/11/13 06:33:31;;;;;;;;;;;;;;;6.71;79.38;102375.19;5045030;28;19917;-55
2022/11/13 06:35:56;;;;;;;;;;;;;;;6.69;79.43;102373.63;5047734;28;20015;-57
2022/11/13 06:38:22;;;;;;;;;;;;;;;6.64;79.38;102373.06;5045834;28;19917;-53
2022/11/13 06:40:47;;;;;;;;;;;;;;;6.59;79.54;102368.13;5049585;28;20446;-55
2022/11/13 06:43:12;;;;;;;;;;;;;;;6.55;79.62;102371.09;5049538;28;19917;-56
2022/11/13 06:45:37;;;;;;;;;;;;;;;6.48;79.69;102366.25;5041273;28;20342;-56
2022/11/13 06:48:02;;;;;;;;;;;;;;;6.45;79.67;102357.69;5045617;28;20322;-53
2022/11/13 06:50:28;;;;;;;;;;;;;;;6.43;79.97;102351.69;5045477;28;19933;-54
2022/11/13 06:52:53;;;;;;;;;;;;;;;6.42;80.00;102356.13;5044826;28;19917;-57
2022/11/13 06:55:18;;;;;;;;;;;;;;;6.42;80.19;102350.00;5044376;28;20025;-56
2022/11/13 06:57:43;;;;;;;;;;;;;;;6.39;80.21;102348.41;5045222;28;19925;-58
2022/11/13 07:00:09;;;;;;;;;;;;;;;6.37;80.17;102346.84;5050697;28;19975;-56
2022/11/13 07:02:34;;;;;;;;;;;;;;;6.33;80.22;102348.81;5051390;28;19920;-53
2022/11/13 07:04:59;;;;;;;;;;;;;;;6.30;80.15;102354.31;5047722;28;19916;-55
2022/11/13 07:07:24;;;;;;;;;;;;;;;6.27;80.41;102349.25;5046648;28;19990;-52
2022/11/13 07:09:49;;;;;;;;;;;;;;;6.28;80.38;102350.09;5047252;28;19985;-53
2022/11/13 07:12:15;;;;;;;;;;;;;;;6.27;80.44;102351.03;5047107;28;20025;-53
2022/11/13 07:14:40;;;;;;;;;;;;;;;6.27;80.69;102364.22;5051871;28;19924;-55
2022/11/13 07:17:05;;;;;;;;;;;;;;;6.27;80.70;102361.59;5050593;28;19917;-56
2022/11/13 07:19:30;;;;;;;;;;;;;;;6.24;80.58;102360.00;5051350;28;19923;-55
2022/11/13 07:21:55;;;;;;;;;;;;;;;6.24;80.46;102361.81;5043708;28;19924;-56
2022/11/13 07:24:21;;;;;;;;;;;;;;;6.22;80.67;102356.63;5046691;28;20042;-56
2022/11/13 07:26:46;;;;;;;;;;;;;;;6.22;80.88;102354.84;5047135;28;19921;-53
2022/11/13 07:29:11;;;;;;;;;;;;;;;6.26;80.71;102352.00;5045221;28;19921;-54
2022/11/13 07:31:36;;;;;;;;;;;;;;;6.29;80.88;102354.41;5044046;28;19928;-53
2022/11/13 07:34:01;;;;;;;;;;;;;;;6.32;81.03;102348.94;5047399;28;19925;-55
2022/11/13 07:36:27;;;;;;;;;;;;;;;6.35;81.02;102351.34;5045626;28;19955;-54
2022/11/13 07:38:52;;;;;;;;;;;;;;;6.39;81.19;102358.13;5043989;28;19928;-56
2022/11/13 07:41:17;;;;;;;;;;;;;;;6.45;81.17;102352.41;5044658;28;20334;-54
2022/11/13 07:43:42;;;;;;;;;;;;;;;6.52;81.61;102351.88;5045980;28;19916;-53
2022/11/13 07:46:07;;;;;;;;;;;;;;;6.63;81.70;102352.91;5043031;28;20001;-54
2022/11/13 07:48:32;;;;;;;;;;;;;;;6.74;81.99;102353.88;5048214;28;19928;-54
2022/11/13 07:50:58;;;;;;;;;;;;;;;6.86;82.13;102346.00;5048004;28;19924;-57
2022/11/13 07:53:24;;;;;;;;;;;;;;;6.99;82.53;102347.69;5049996;28;20064;-56
2022/11/13 07:55:49;;;;;;;;;;;;;;;7.12;82.73;102344.97;5046773;28;19917;-57
2022/11/13 07:58:16;;;;;;;;;;;;;;;7.24;82.55;102346.75;5048275;28;21296;-55
2022/11/13 08:00:41;;;;;;;;;;;;;;;7.38;82.74;102349.22;5047076;28;20351;-55
2022/11/13 08:03:07;;;;;;;;;;;;;;;7.51;82.82;102341.22;5050945;28;19920;-54
2022/11/13 08:05:33;;;;;;;;;;;;;;;7.67;82.39;102343.56;5046921;28;20455;-55
2022/11/13 08:07:58;;;;;;;;;;;;;;;7.85;82.49;102347.50;5048898;28;20411;-54
2022/11/13 08:10:23;;;;;;;;;;;;;;;8.02;82.82;102348.84;5049459;28;20008;-54
2022/11/13 08:12:56;;;;;;;;;;;;;;;8.19;82.50;102343.09;5051185;28;19916;-56
2022/11/13 08:15:21;;;;;;;;;;;;;;;8.41;82.54;102338.84;5048452;28;19924;-55
2022/11/13 08:17:51;;;;;;;;;;;;;;;8.53;82.45;102337.88;5048205;28;19916;-53
2022/11/13 08:20:17;;;;;;;;;;;;;;;8.57;81.96;102332.19;5044409;28;19936;-52
2022/11/13 08:22:42;;;;;;;;;;;;;;;8.51;81.04;102337.97;5056516;28;20376;-54
2022/11/13 08:25:07;;;;;;;;;;;;;;;8.50;80.97;102333.66;5049505;28;20004;-55
2022/11/13 08:27:32;;;;;;;;;;;;;;;8.61;81.34;102330.16;5049983;28;20337;-55
2022/11/13 08:29:58;;;;;;;;;;;;;;;8.74;81.31;102332.69;5051785;28;19919;-54
2022/11/13 08:32:23;;;;;;;;;;;;;;;8.87;81.04;102326.28;5050367;28;20083;-57
2022/11/13 08:34:49;;;;;;;;;;;;;;;8.98;80.95;102328.91;5050212;28;20011;-57
2022/11/13 08:37:14;;;;;;;;;;;;;;;8.92;80.39;102328.53;5054373;28;19913;-56
2022/11/13 08:39:39;;;;;;;;;;;;;;;8.79;79.55;102323.41;5048757;28;19913;-54
2022/11/13 08:42:04;;;;;;;;;;;;;;;8.68;79.55;102318.13;5048574;28;19920;-56
2022/11/13 08:44:30;;;;;;;;;;;;;;;8.63;79.53;102322.94;5049008;28;19912;-55
2022/11/13 08:46:55;;;;;;;;;;;;;;;8.71;79.63;102323.19;5049702;28;19940;-55
2022/11/13 08:49:20;;;;;;;;;;;;;;;8.82;80.10;102317.00;5055441;28;19978;-55
2022/11/13 08:51:46;;;;;;;;;;;;;;;9.01;80.20;102322.53;5049537;28;19919;-54
2022/11/13 08:54:11;;;;;;;;;;;;;;;9.11;79.76;102315.50;5047083;28;20436;-54
2022/11/13 08:56:36;;;;;;;;;;;;;;;9.20;79.96;102316.56;5041139;28;19920;-56
2022/11/13 08:59:01;;;;;;;;;;;;;;;9.34;79.74;102316.28;5053821;28;19999;-58
2022/11/13 09:01:27;;;;;;;;;;;;;;;9.48;79.74;102320.44;5048825;28;19917;-55
2022/11/13 09:03:52;;;;;;;;;;;;;;;9.63;79.58;102314.72;5051831;28;20273;-56
2022/11/13 09:06:17;;;;;;;;;;;;;;;9.76;79.32;102313.66;5049475;28;19923;-55
2022/11/13 09:08:42;;;;;;;;;;;;;;;9.80;78.57;102307.97;5047834;28;20276;-56
2022/11/13 09:11:07;;;;;;;;;;;;;;;9.81;78.00;102312.31;5048155;28;20642;-55
2022/11/13 09:13:33;;;;;;;;;;;;;;;9.82;77.48;102313.97;5048008;28;19917;-56
2022/11/13 09:15:59;;;;;;;;;;;;;;;9.83;77.04;102309.53;5049109;28;19913;-55
2022/11/13 09:18:24;;;;;;;;;;;;;;;9.80;77.03;102302.66;5044686;28;20487;-57
2022/11/13 09:20:49;;;;;;;;;;;;;;;9.78;76.88;102298.47;5047007;28;19952;-56
2022/11/13 09:23:14;;;;;;;;;;;;;;;9.78;76.59;102301.94;5048503;28;19917;-56
2022/11/13 09:25:40;;;;;;;;;;;;;;;9.77;76.71;102294.13;5048780;28;19924;-55
2022/11/13 09:28:05;;;;;;;;;;;;;;;9.77;76.87;102294.97;5047975;28;20008;-57
2022/11/13 09:30:30;;;;;;;;;;;;;;;9.79;76.79;102289.53;5048646;28;19919;-55
2022/11/13 09:32:56;;;;;;;;;;;;;;;9.81;76.92;102291.06;5055797;28;20467;-54
2022/11/13 09:35:34;;;;;;;;;;;;;;;9.84;76.85;102287.34;5046412;28;19912;-55
2022/11/13 09:38:04;;;;;;;;;;;;;;;9.87;76.47;102287.94;5048880;28;20431;-55
2022/11/13 09:40:32;;;;;;;;;;;;;;;9.91;76.75;102291.16;5042169;28;19913;-56
2022/11/13 09:42:58;;;;;;;;;;;;;;;9.96;76.75;102286.28;5047038;28;19967;-56
2022/11/13 09:45:23;;;;;;;;;;;;;;;9.99;76.62;102288.69;5050663;28;19948;-56
2022/11/13 09:47:51;;;;;;;;;;;;;;;10.02;76.36;102285.75;5041843;28;19920;-57
2022/11/13 09:50:20;;;;;;;;;;;;;;;10.07;76.07;102291.50;5040897;28;19917;-56
2022/11/13 09:52:46;;;;;;;;;;;;;;;10.12;75.94;102291.09;5047125;28;19913;-56
2022/11/13 09:55:14;;;;;;;;;;;;;;;10.15;75.92;102293.53;5048096;28;19939;-56
2022/11/13 09:57:56;;;;;;;;;;;;;;;10.18;75.38;102290.59;5052538;28;19919;-57
2022/11/13 10:00:21;;;;;;;;;;;;;;;10.24;75.26;102290.94;5043290;28;19958;-55
2022/11/13 10:03:05;;;;;;;;;;;;;;;10.28;75.36;102288.84;5047594;28;19917;-55
2022/11/13 10:05:38;;;;;;;;;;;;;;;10.32;75.30;102290.28;5047286;28;19919;-56
2022/11/13 10:08:06;;;;;;;;;;;;;;;10.37;74.32;102292.53;5034828;28;19929;-57
2022/11/13 10:10:51;;;;;;;;;;;;;;;10.42;74.35;102287.69;5048062;28;20035;-56
2022/11/13 10:13:19;;;;;;;;;;;;;;;10.48;74.31;102289.78;5041424;28;19917;-56
2022/11/13 10:15:47;;;;;;;;;;;;;;;10.53;74.47;102292.88;5039494;28;19921;-55
2022/11/13 10:18:17;;;;;;;;;;;;;;;10.57;74.47;102285.47;5041863;28;20065;-57
2022/11/13 10:20:47;;;;;;;;;;;;;;;10.63;74.53;102288.44;5043627;28;20473;-57
2022/11/13 10:23:18;;;;;;;;;;;;;;;10.67;73.79;102283.69;5044331;28;19924;-56
2022/11/13 10:25:44;;;;;;;;;;;;;;;10.72;74.12;102276.16;5041880;28;19917;-56
2022/11/13 10:28:22;;;;;;;;;;;;;;;10.77;73.14;102272.13;5044277;28;19979;-56
2022/11/13 10:30:47;;;;;;;;;;;;;;;10.82;73.67;102269.03;5044022;28;19913;-56
2022/11/13 10:33:15;;;;;;;;;;;;;;;10.86;73.32;102263.31;5051555;28;20287;-57
2022/11/13 10:35:44;;;;;;;;;;;;;;;10.91;73.36;102264.72;5056666;28;19913;-55
2022/11/13 10:38:18;;;;;;;;;;;;;;;10.94;73.05;102259.97;5050047;28;20014;-56
2022/11/13 10:40:44;;;;;;;;;;;;;;;10.99;73.16;102256.91;5047024;28;19928;-56
2022/11/13 10:43:13;;;;;;;;;;;;;;;11.02;73.13;102256.63;5050933;28;19916;-56
2022/11/13 10:45:38;;;;;;;;;;;;;;;11.06;73.26;102255.38;5052645;28;20365;-56
2022/11/13 10:48:04;;;;;;;;;;;;;;;11.08;72.91;102256.06;5045215;28;20467;-55
2022/11/13 10:50:30;;;;;;;;;;;;;;;11.11;73.25;102245.16;5042788;28;19924;-56
2022/11/13 10:52:56;;;;;;;;;;;;;;;11.15;73.13;102238.56;5045967;28;19918;-55
2022/11/13 10:55:36;;;;;;;;;;;;;;;11.20;73.00;102235.50;5046583;28;19921;-54
2022/11/13 10:58:03;;;;;;;;;;;;;;;11.26;72.90;102226.94;5049965;28;19927;-55
2022/11/13 11:00:32;;;;;;;;;;;;;;;11.30;72.77;102218.56;5047857;28;21665;-57
2022/11/13 11:02:57;;;;;;;;;;;;;;;11.37;72.81;102225.00;5048813;28;19921;-56
2022/11/13 11:05:23;;;;;;;;;;;;;;;11.42;73.00;102217.41;5050077;28;19927;-57
2022/11/13 11:07:49;;;;;;;;;;;;;;;11.48;72.89;102223.97;5048057;28;19935;-56
2022/11/13 11:10:20;;;;;;;;;;;;;;;11.55;72.67;102205.63;5048908;28;20273;-53
2022/11/13 11:12:55;;;;;;;;;;;;;;;11.62;72.42;102206.75;5046805;28;20395;-57
2022/11/13 11:15:32;;;;;;;;;;;;;;;11.73;72.62;102204.75;5051131;28;19936;-56
2022/11/13 11:18:04;;;;;;;;;;;;;;;11.82;72.21;102203.06;5048964;28;19927;-57
2022/11/13 11:20:39;;;;;;;;;;;;;;;11.95;71.98;102197.44;5046261;28;20318;-57
2022/11/13 11:23:21;;;;;;;;;;;;;;;12.03;71.45;102202.84;5050625;28;19970;-54
2022/11/13 11:26:05;;;;;;;;;;;;;;;12.08;70.93;102193.44;5047925;28;20339;-54
2022/11/13 11:28:33;;;;;;;;;;;;;;;12.25;70.86;102199.81;5044512;28;20838;-58
2022/11/13 11:31:25;;;;;;;;;;;;;;;12.37;70.78;102198.59;5052936;28;19960;-57
2022/11/13 11:33:58;;;;;;;;;;;;;;;12.57;70.45;102196.69;5044157;28;20372;-55
2022/11/13 11:36:26;;;;;;;;;;;;;;;12.73;68.96;102193.34;5050378;28;19913;-54
2022/11/13 11:39:09;;;;;;;;;;;;;;;12.94;68.63;102185.88;5049130;28;19913;-57
2022/11/13 11:41:37;;;;;;;;;;;;;;;13.15;68.29;102180.22;5051231;28;19921;-55
2022/11/13 11:44:14;;;;;;;;;;;;;;;13.35;68.60;102180.91;5049930;28;19913;-56
2022/11/13 11:46:39;;;;;;;;;;;;;;;13.55;67.55;102173.53;5041938;28;19917;-57
2022/11/13 11:49:05;;;;;;;;;;;;;;;13.73;68.19;102155.63;5049460;28;19923;-55
2022/11/13 11:51:36;;;;;;;;;;;;;;;13.92;68.07;102157.22;5050359;28;20301;-57
2022/11/13 11:54:20;;;;;;;;;;;;;;;14.08;67.25;102157.28;5052462;28;20418;-55
2022/11/13 11:56:51;;;;;;;;;;;;;;;14.21;65.89;102157.66;5049958;28;19916;-57
2022/11/13 11:59:30;;;;;;;;;;;;;;;14.33;65.41;102146.66;5049810;28;19924;-58
2022/11/13 12:02:24;;;;;;;;;;;;;;;14.43;64.99;102145.53;5049768;28;19964;-56
2022/11/13 12:04:55;;;;;;;;;;;;;;;14.55;64.76;102136.22;5047373;28;19916;-53
2022/11/13 12:07:39;;;;;;;;;;;;;;;14.65;64.50;102130.72;5048531;28;19927;-57
2022/11/13 12:10:11;;;;;;;;;;;;;;;14.83;63.98;102139.44;5048924;28;19912;-56
2022/11/13 12:12:49;;;;;;;;;;;;;;;14.95;63.29;102131.91;5051288;28;19912;-57
2022/11/13 12:15:19;;;;;;;;;;;;;;;15.06;63.74;102128.91;5050381;28;20361;-55
2022/11/13 12:17:51;;;;;;;;;;;;;;;15.21;63.85;102125.53;5048286;28;19923;-56
2022/11/13 12:20:16;;;;;;;;;;;;;;;15.32;62.09;102122.50;5047091;28;20388;-56
2022/11/13 12:22:42;;;;;;;;;;;;;;;15.40;61.72;102126.00;5043212;28;19967;-56
2022/11/13 12:25:08;;;;;;;;;;;;;;;15.53;61.72;102120.09;5045101;28;19999;-56
2022/11/13 12:27:36;;;;;;;;;;;;;;;15.67;61.14;102119.44;5046931;28;19921;-55
2022/11/13 12:30:07;;;;;;;;;;;;;;;15.84;61.11;102114.84;5041597;28;19956;-57
2022/11/13 12:32:38;;;;;;;;;;;;;;;16.03;60.54;102111.75;5052106;28;19961;-56
2022/11/13 12:35:07;;;;;;;;;;;;;;;16.21;60.05;102113.34;5049688;28;19931;-57
2022/11/13 12:37:37;;;;;;;;;;;;;;;16.38;58.83;102107.69;5054545;28;19913;-53
2022/11/13 12:40:05;;;;;;;;;;;;;;;16.56;58.82;102099.34;5045660;28;19916;-57
2022/11/13 12:42:38;;;;;;;;;;;;;;;16.72;59.62;102098.41;5046081;28;19959;-55
2022/11/13 12:45:11;;;;;;;;;;;;;;;16.89;58.79;102091.91;5044657;28;20019;-56
2022/11/13 12:47:36;;;;;;;;;;;;;;;17.02;57.48;102086.72;5043408;28;19928;-55